createdAt,value
2022-10-14T00:00:00.248Z,9.9
2022-10-14T00:10:00.255Z,9.9
2022-10-14T00:20:00.344Z,9.8
2022-10-14T00:30:00.289Z,9.8
2022-10-14T00:40:00.308Z,9.7
2022-10-14T00:50:00.346Z,9.5
2022-10-14T01:00:00.314Z,9.4
2022-10-14T01:10:00.298Z,9.3
2022-10-14T01:20:00.322Z,9.3
2022-10-14T01:30:00.302Z,9.1
2022-10-14T01:40:00.290Z,9.0
2022-10-14T01:50:00.426Z,8.9
2022-10-14T02:00:00.293Z,8.8
2022-10-14T02:10:00.320Z,8.7
2022-10-14T02:20:00.281Z,8.7
2022-10-14T02:30:00.306Z,8.5
2022-10-14T02:40:00.287Z,8.4
2022-10-14T02:50:00.306Z,8.4
2022-10-14T03:00:00.256Z,8.3
2022-10-14T03:10:00.344Z,8.2
2022-10-14T03:20:00.272Z,8.1
2022-10-14T03:30:00.292Z,8.0
2022-10-14T03:40:00.271Z,7.9
2022-10-14T03:50:00.293Z,7.7
2022-10-14T04:00:00.277Z,7.6
2022-10-14T04:10:00.253Z,7.6
2022-10-14T04:20:00.591Z,7.6
2022-10-14T04:30:00.286Z,7.5
2022-10-14T04:40:00.292Z,7.4
2022-10-14T04:50:00.311Z,7.4
2022-10-14T05:00:00.298Z,7.3
2022-10-14T05:10:00.273Z,7.3
2022-10-14T05:20:00.275Z,7.2
2022-10-14T05:30:00.325Z,7.2
2022-10-14T05:40:00.326Z,7.1
2022-10-14T05:50:00.257Z,7.1
2022-10-14T06:00:00.264Z,7.1
2022-10-14T06:10:00.272Z,7.1
2022-10-14T06:20:00.289Z,7.1
2022-10-14T06:30:00.304Z,7.4
2022-10-14T06:40:00.392Z,7.7
2022-10-14T06:50:00.278Z,8.0
2022-10-14T07:00:00.235Z,8.4
2022-10-14T07:10:00.230Z,8.9
2022-10-14T07:20:00.254Z,9.3
2022-10-14T07:30:00.242Z,10.2
2022-10-14T07:40:00.253Z,10.8
2022-10-14T07:50:00.308Z,11.4
2022-10-14T08:00:00.266Z,11.9
2022-10-14T08:10:00.313Z,12.6
2022-10-14T08:20:00.237Z,13.2
2022-10-14T08:30:00.244Z,13.7
2022-10-14T08:40:00.251Z,14.2
2022-10-14T08:50:00.250Z,14.4
2022-10-14T09:00:00.298Z,14.7
2022-10-14T09:10:00.282Z,14.8
2022-10-14T09:20:00.253Z,14.8
2022-10-14T09:30:00.252Z,15.0
2022-10-14T09:40:00.253Z,15.0
2022-10-14T09:50:00.232Z,15.2
2022-10-14T10:00:00.225Z,15.4
2022-10-14T10:10:00.314Z,15.7
2022-10-14T10:20:00.244Z,15.8
2022-10-14T10:30:00.240Z,15.8
2022-10-14T10:40:00.219Z,15.7
2022-10-14T10:50:00.414Z,15.7
2022-10-14T11:00:00.293Z,16.0
2022-10-14T11:10:00.342Z,16.1
2022-10-14T11:20:00.309Z,16.1
2022-10-14T11:30:00.256Z,16.2
2022-10-14T11:40:00.294Z,16.5
2022-10-14T11:50:00.245Z,16.7
2022-10-14T12:00:00.283Z,16.9
2022-10-14T12:10:00.375Z,16.9
2022-10-14T12:20:00.246Z,16.8
2022-10-14T12:30:00.324Z,16.8
2022-10-14T12:40:00.213Z,16.7
2022-10-14T12:50:00.228Z,16.6
2022-10-14T13:00:00.225Z,16.7
2022-10-14T13:10:00.238Z,16.9
2022-10-14T13:20:00.230Z,17.0
2022-10-14T13:30:00.248Z,17.0
2022-10-14T13:40:00.683Z,17.0
2022-10-14T13:50:00.249Z,17.1
2022-10-14T14:10:00.436Z,17.1
2022-10-14T14:20:00.306Z,17.0
2022-10-14T14:30:00.329Z,17.0
2022-10-14T14:40:00.302Z,16.8
2022-10-14T14:50:25.211Z,16.7
2022-10-14T15:00:00.256Z,16.6
2022-10-14T15:10:00.277Z,16.4
2022-10-14T15:20:00.364Z,16.2
2022-10-14T15:30:00.237Z,16.0
2022-10-14T15:40:00.221Z,15.8
2022-10-14T15:50:00.259Z,15.5
2022-10-14T16:00:00.298Z,15.2
2022-10-14T16:10:00.282Z,14.8
2022-10-14T16:20:00.253Z,14.4
2022-10-14T16:30:00.267Z,14.0
2022-10-14T16:40:00.352Z,13.8
2022-10-14T16:50:00.317Z,13.4
2022-10-14T17:00:00.363Z,13.1
2022-10-14T17:10:00.315Z,12.9
2022-10-14T17:30:00.644Z,12.2
2022-10-14T17:40:00.278Z,12.1
2022-10-14T17:50:00.269Z,11.9
2022-10-14T18:00:00.311Z,11.8
2022-10-14T18:10:00.244Z,11.6
2022-10-14T18:20:00.327Z,11.5
2022-10-14T18:30:00.281Z,11.4
2022-10-14T18:40:00.264Z,11.2
2022-10-14T18:50:00.352Z,11.0
2022-10-14T19:00:00.270Z,11.0
2022-10-14T19:10:00.256Z,11.0
2022-10-14T19:20:00.258Z,11.0
2022-10-14T19:30:00.313Z,11.0
2022-10-14T19:40:00.458Z,11.0
2022-10-14T19:50:00.233Z,10.9
2022-10-14T20:00:00.317Z,10.8
2022-10-14T20:10:01.930Z,10.7
2022-10-14T20:20:00.277Z,10.6
2022-10-14T20:30:00.313Z,10.6
2022-10-14T20:40:00.335Z,10.6
2022-10-14T20:50:00.234Z,10.6
2022-10-14T21:00:00.281Z,10.6
2022-10-14T21:10:00.302Z,10.6
2022-10-14T21:20:00.301Z,10.5
2022-10-14T21:30:00.401Z,10.4
2022-10-14T21:40:00.299Z,10.3
2022-10-14T21:50:00.312Z,10.3
2022-10-14T22:00:00.343Z,10.2
2022-10-14T22:10:00.390Z,10.2
2022-10-14T22:20:00.250Z,10.1
2022-10-14T22:30:00.741Z,10.0
2022-10-14T22:40:00.237Z,9.9
2022-10-14T22:50:00.276Z,9.8
2022-10-14T23:00:00.349Z,9.7
2022-10-14T23:10:00.249Z,9.7
2022-10-14T23:20:00.268Z,9.7
2022-10-14T23:30:00.296Z,9.6
2022-10-14T23:40:00.261Z,9.5
2022-10-14T23:50:00.310Z,9.5
